Terminal Aerodrome Forecast
Issued by NWS Los Angeles, CA

Home | Current Version | Previous Version | Text Only | Print | Product List | Glossary On
Versions: 1 2 3 4 5 6 7 8 9 10 11 12 13 14 15 16 17 18 19 20 21 22 23 24 25
000
FTUS46 KLOX 311800 AAA
TAFSMX
TAF AMD
KSMX 311828Z 3118/0118 29008KT P6SM SCT008
     FM312000 31012KT P6SM SKC
     FM010400 VRB03KT 4SM BR OVC004
     FM011200 VRB03KT 1/4SM FG VV002
     FM011700 VRB03KT 4SM BR OVC006=

USA.gov is the U.S. government's official web portal to all federal, state and local government web resources and services.